createdAt,value
2017-11-24T00:00:28.022Z,7.50
2017-11-24T00:02:55.553Z,7.60
2017-11-24T00:05:23.861Z,7.50
2017-11-24T00:07:51.392Z,7.50
2017-11-24T00:10:19.692Z,7.50
2017-11-24T00:12:47.259Z,7.40
2017-11-24T00:15:14.776Z,7.40
2017-11-24T00:17:42.308Z,7.50
2017-11-24T00:20:09.832Z,7.50
2017-11-24T00:22:37.402Z,7.50
2017-11-24T00:25:04.925Z,7.30
2017-11-24T00:27:33.222Z,7.20
2017-11-24T00:30:00.730Z,7.20
2017-11-24T00:32:28.263Z,7.30
2017-11-24T00:34:55.778Z,7.30
2017-11-24T00:37:24.183Z,7.20
2017-11-24T00:39:51.720Z,7.10
2017-11-24T00:42:19.265Z,7.10
2017-11-24T00:44:46.795Z,7.20
2017-11-24T00:47:14.313Z,7.20
2017-11-24T00:49:41.904Z,7.10
2017-11-24T00:52:09.415Z,7.10
2017-11-24T00:54:36.941Z,6.90
2017-11-24T00:57:04.472Z,6.90
2017-11-24T00:59:32.022Z,6.90
2017-11-24T01:01:59.607Z,7.00
2017-11-24T01:04:27.160Z,6.90
2017-11-24T01:06:54.668Z,6.90
2017-11-24T01:09:22.291Z,6.80
2017-11-24T01:11:49.806Z,6.80
2017-11-24T01:14:17.404Z,6.80
2017-11-24T01:16:44.920Z,6.90
2017-11-24T01:19:12.459Z,7.00
2017-11-24T01:21:39.968Z,7.20
2017-11-24T01:24:08.273Z,7.20
2017-11-24T01:26:35.787Z,7.20
2017-11-24T01:29:04.087Z,7.20
2017-11-24T01:31:31.606Z,7.20
2017-11-24T01:34:00.648Z,7.10
2017-11-24T01:36:28.159Z,7.10
2017-11-24T01:38:55.694Z,6.90
2017-11-24T01:41:23.244Z,7.00
2017-11-24T01:43:50.769Z,7.10
2017-11-24T01:46:19.041Z,7.10
2017-11-24T01:48:47.341Z,7.10
2017-11-24T01:51:14.908Z,7.00
2017-11-24T01:53:42.456Z,7.10
2017-11-24T01:56:09.994Z,7.20
2017-11-24T01:58:38.279Z,7.40
2017-11-24T02:01:06.606Z,7.40
2017-11-24T02:03:34.128Z,7.40
2017-11-24T02:06:02.419Z,7.60
2017-11-24T02:08:29.938Z,7.60
2017-11-24T02:10:57.461Z,7.60
2017-11-24T02:13:25.008Z,7.50
2017-11-24T02:15:52.571Z,7.40
2017-11-24T02:18:20.132Z,7.40
2017-11-24T02:20:47.688Z,7.50
2017-11-24T02:23:15.192Z,7.60
2017-11-24T02:25:42.909Z,7.80
2017-11-24T02:28:10.469Z,7.90
2017-11-24T02:30:38.006Z,7.90
2017-11-24T02:33:06.307Z,8.10
2017-11-24T02:35:33.845Z,8.10
2017-11-24T02:38:02.148Z,8.10
2017-11-24T02:40:29.716Z,8.10
2017-11-24T02:42:57.269Z,8.10
2017-11-24T02:45:24.798Z,8.20
2017-11-24T02:47:53.109Z,8.30
2017-11-24T02:50:20.634Z,8.30
2017-11-24T02:52:48.913Z,8.40
2017-11-24T02:55:17.212Z,8.40
2017-11-24T02:57:45.511Z,8.50
2017-11-24T03:00:13.048Z,8.40
2017-11-24T03:02:41.345Z,8.50
2017-11-24T03:05:08.876Z,8.60
2017-11-24T03:07:37.157Z,8.50
2017-11-24T03:10:05.468Z,8.60
2017-11-24T03:12:33.747Z,8.70
2017-11-24T03:15:01.252Z,8.60
2017-11-24T03:17:28.776Z,8.70
2017-11-24T03:19:56.290Z,8.80
2017-11-24T03:22:24.587Z,8.80
2017-11-24T03:24:52.091Z,8.80
2017-11-24T03:27:19.617Z,8.80
2017-11-24T03:29:47.158Z,8.80
2017-11-24T03:32:15.555Z,8.80
2017-11-24T03:34:43.103Z,8.80
2017-11-24T03:37:10.624Z,8.80
2017-11-24T03:39:38.145Z,8.80
2017-11-24T03:42:05.668Z,8.80
2017-11-24T03:44:33.991Z,8.80
2017-11-24T03:47:01.521Z,8.70
2017-11-24T03:49:29.051Z,8.80
2017-11-24T03:51:56.588Z,8.80
2017-11-24T03:54:24.121Z,8.80
2017-11-24T03:56:51.662Z,8.80
2017-11-24T03:59:19.227Z,8.80
2017-11-24T04:01:46.760Z,8.80
2017-11-24T04:04:15.036Z,8.80
2017-11-24T04:06:42.641Z,8.80
2017-11-24T04:09:10.204Z,8.80
2017-11-24T04:11:37.723Z,8.80
2017-11-24T04:14:06.016Z,8.90
2017-11-24T04:16:34.300Z,8.80
2017-11-24T04:19:01.816Z,8.80
2017-11-24T04:21:29.436Z,8.90
2017-11-24T04:23:56.940Z,8.90
2017-11-24T04:26:24.540Z,8.90
2017-11-24T04:28:52.119Z,8.90
2017-11-24T04:31:19.663Z,8.80
2017-11-24T04:33:47.228Z,8.70
2017-11-24T04:36:14.747Z,8.60
2017-11-24T04:38:48.825Z,8.60
2017-11-24T04:41:16.370Z,8.70
2017-11-24T04:43:43.911Z,8.60
2017-11-24T04:46:11.495Z,8.60
2017-11-24T04:48:39.003Z,8.60
2017-11-24T04:51:06.603Z,8.60
2017-11-24T04:53:34.180Z,8.50
2017-11-24T04:56:01.727Z,8.40
2017-11-24T04:58:29.235Z,8.40
2017-11-24T05:00:56.849Z,8.40
2017-11-24T05:03:24.364Z,8.40
2017-11-24T05:05:51.891Z,8.40
2017-11-24T05:08:19.407Z,8.30
2017-11-24T05:10:47.704Z,8.30
2017-11-24T05:13:15.273Z,8.20
2017-11-24T05:15:42.836Z,8.20
2017-11-24T05:18:10.341Z,8.20
2017-11-24T05:20:37.884Z,8.20
2017-11-24T05:23:05.404Z,8.20
2017-11-24T05:25:32.980Z,8.20
2017-11-24T05:28:00.504Z,8.20
2017-11-24T05:30:28.808Z,8.10
2017-11-24T05:32:56.328Z,8.10
2017-11-24T05:35:23.844Z,8.10
2017-11-24T05:37:51.384Z,8.10
2017-11-24T05:40:19.008Z,8.00
2017-11-24T05:42:46.582Z,8.00
2017-11-24T05:45:14.172Z,8.00
2017-11-24T05:47:41.730Z,8.00
2017-11-24T05:50:09.317Z,8.00
2017-11-24T05:52:36.973Z,8.00
2017-11-24T05:55:04.528Z,8.00
2017-11-24T05:57:32.060Z,8.00
2017-11-24T06:00:00.352Z,8.00
2017-11-24T06:02:27.900Z,8.00
2017-11-24T06:04:56.180Z,8.00
2017-11-24T06:07:24.476Z,7.90
2017-11-24T06:09:51.981Z,7.90
2017-11-24T06:12:19.593Z,7.90
2017-11-24T06:14:47.117Z,7.90
2017-11-24T06:17:15.427Z,7.90
2017-11-24T06:19:42.935Z,7.90
2017-11-24T06:22:10.448Z,7.90
2017-11-24T06:24:37.995Z,7.90
2017-11-24T06:27:06.289Z,7.90
2017-11-24T06:29:33.816Z,7.90
2017-11-24T06:32:01.413Z,8.00
2017-11-24T06:34:28.949Z,8.00
2017-11-24T06:36:57.261Z,7.90
2017-11-24T06:39:24.784Z,7.90
2017-11-24T06:41:53.056Z,7.80
2017-11-24T06:44:20.583Z,7.80
2017-11-24T06:46:48.110Z,7.80
2017-11-24T06:49:15.676Z,7.80
2017-11-24T06:51:43.228Z,7.90
2017-11-24T06:54:10.765Z,7.90
2017-11-24T06:56:39.068Z,7.90
2017-11-24T06:59:06.615Z,7.90
2017-11-24T07:01:34.940Z,7.90
2017-11-24T07:04:02.469Z,7.90
2017-11-24T07:06:29.984Z,7.90
2017-11-24T07:08:57.589Z,7.90
2017-11-24T07:11:25.113Z,7.90
2017-11-24T07:13:52.719Z,7.90
2017-11-24T07:16:20.243Z,7.90
2017-11-24T07:18:48.520Z,7.90
2017-11-24T07:21:16.815Z,7.90
2017-11-24T07:23:45.088Z,7.90
2017-11-24T07:26:13.377Z,7.80
2017-11-24T07:28:41.879Z,7.90
2017-11-24T07:31:09.557Z,7.80
2017-11-24T07:33:37.235Z,7.80
2017-11-24T07:36:04.764Z,7.80
2017-11-24T07:38:32.368Z,7.90
2017-11-24T07:41:00.198Z,7.90
2017-11-24T07:43:27.749Z,7.90
2017-11-24T07:45:55.402Z,7.90
2017-11-24T07:48:22.943Z,7.80
2017-11-24T07:50:51.233Z,7.70
2017-11-24T07:53:18.804Z,7.70
2017-11-24T07:55:46.343Z,7.70
2017-11-24T07:58:14.640Z,7.70
2017-11-24T08:00:42.165Z,7.70
2017-11-24T08:03:09.756Z,7.70
2017-11-24T08:05:37.321Z,7.60
2017-11-24T08:08:04.831Z,7.50
2017-11-24T08:10:32.364Z,7.50
2017-11-24T08:13:00.228Z,7.50
2017-11-24T08:15:27.765Z,7.50
2017-11-24T08:17:55.794Z,7.50
2017-11-24T08:20:23.328Z,7.50
2017-11-24T08:22:50.859Z,7.50
2017-11-24T08:25:18.388Z,7.50
2017-11-24T08:27:45.980Z,7.50
2017-11-24T08:30:13.544Z,7.60
2017-11-24T08:32:41.124Z,7.50
2017-11-24T08:35:08.659Z,7.50
2017-11-24T08:37:36.234Z,7.50
2017-11-24T08:40:03.792Z,7.60
2017-11-24T08:42:31.352Z,7.70
2017-11-24T08:44:58.918Z,7.60
2017-11-24T08:47:32.055Z,7.80
2017-11-24T08:49:59.668Z,7.80
2017-11-24T08:52:27.195Z,7.90
2017-11-24T08:54:54.788Z,8.00
2017-11-24T08:57:22.327Z,8.10
2017-11-24T08:59:50.627Z,8.20
2017-11-24T09:02:18.163Z,8.20
2017-11-24T09:04:46.436Z,8.20
2017-11-24T09:07:14.732Z,8.20
2017-11-24T09:09:42.296Z,8.20
2017-11-24T09:12:09.821Z,8.20
2017-11-24T09:14:37.333Z,8.10
2017-11-24T09:17:04.880Z,8.00
2017-11-24T09:19:32.443Z,7.90
2017-11-24T09:21:59.973Z,7.90
2017-11-24T09:24:28.272Z,7.90
2017-11-24T09:26:55.813Z,7.90
2017-11-24T09:29:24.095Z,7.80
2017-11-24T09:31:52.381Z,7.80
2017-11-24T09:34:20.663Z,7.80
2017-11-24T09:36:48.245Z,7.80
2017-11-24T09:39:15.753Z,8.00
2017-11-24T09:41:43.296Z,8.00
2017-11-24T09:44:10.810Z,7.90
2017-11-24T09:46:38.341Z,8.00
2017-11-24T09:49:05.938Z,8.10
2017-11-24T09:51:33.471Z,8.10
2017-11-24T09:54:01.760Z,7.90
2017-11-24T09:56:30.033Z,8.00
2017-11-24T09:58:58.316Z,7.90
2017-11-24T10:01:26.604Z,7.90
2017-11-24T10:03:54.140Z,7.90
2017-11-24T10:06:23.193Z,7.80
2017-11-24T10:08:50.729Z,7.80
2017-11-24T10:11:18.244Z,7.90
2017-11-24T10:13:45.827Z,8.00
2017-11-24T10:16:13.387Z,8.10
2017-11-24T10:18:41.673Z,8.20
2017-11-24T10:21:14.936Z,8.20
2017-11-24T10:23:42.472Z,8.10
2017-11-24T10:26:09.986Z,8.20
2017-11-24T10:28:37.563Z,8.10
2017-11-24T10:31:05.093Z,8.20
2017-11-24T10:33:33.387Z,8.20
2017-11-24T10:36:01.628Z,8.20
2017-11-24T10:38:29.157Z,8.30
2017-11-24T10:40:56.674Z,8.30
2017-11-24T10:43:24.967Z,8.30
2017-11-24T10:45:52.484Z,8.30
2017-11-24T10:48:20.023Z,8.30
2017-11-24T10:50:47.532Z,8.50
2017-11-24T10:53:15.928Z,8.80
2017-11-24T10:55:43.498Z,8.80
2017-11-24T10:58:11.156Z,9.00
2017-11-24T11:00:39.251Z,9.10
2017-11-24T11:03:06.769Z,9.20
2017-11-24T11:05:35.069Z,9.60
2017-11-24T11:08:02.591Z,9.60
2017-11-24T11:10:30.909Z,9.50
2017-11-24T11:12:58.480Z,9.50
2017-11-24T11:15:26.008Z,9.30
2017-11-24T11:17:54.305Z,8.80
2017-11-24T11:20:21.835Z,8.80
2017-11-24T11:22:50.155Z,8.80
2017-11-24T11:25:17.695Z,8.80
2017-11-24T11:27:45.270Z,8.70
2017-11-24T11:30:12.810Z,8.70
2017-11-24T11:32:41.080Z,8.50
2017-11-24T11:35:09.375Z,8.60
2017-11-24T11:37:36.884Z,8.60
2017-11-24T11:40:04.420Z,8.40
2017-11-24T11:42:31.924Z,8.40
2017-11-24T11:44:59.521Z,8.40
2017-11-24T11:47:27.077Z,8.40
2017-11-24T11:49:54.635Z,8.50
2017-11-24T11:52:22.159Z,8.50
2017-11-24T11:54:49.662Z,8.50
2017-11-24T11:57:17.192Z,8.50
2017-11-24T11:59:45.497Z,8.50
2017-11-24T12:02:13.026Z,8.50
2017-11-24T12:04:40.564Z,8.50
2017-11-24T12:07:09.610Z,8.70
2017-11-24T12:09:37.120Z,8.80
2017-11-24T12:12:04.735Z,8.90
2017-11-24T12:14:32.244Z,8.70
2017-11-24T12:16:59.764Z,8.70
2017-11-24T12:19:27.303Z,8.50
2017-11-24T12:21:55.617Z,8.50
2017-11-24T12:24:23.166Z,8.50
2017-11-24T12:26:50.701Z,8.50
2017-11-24T12:29:18.972Z,8.90
2017-11-24T12:31:47.280Z,8.70
2017-11-24T12:34:14.792Z,8.70
2017-11-24T12:36:42.396Z,8.70
2017-11-24T12:39:09.928Z,8.60
2017-11-24T12:41:38.225Z,8.40
2017-11-24T12:44:05.794Z,8.40
2017-11-24T12:46:33.298Z,8.30
2017-11-24T12:49:00.909Z,8.20
2017-11-24T12:51:28.518Z,8.10
2017-11-24T12:53:56.057Z,8.10
2017-11-24T12:56:23.569Z,8.00
2017-11-24T12:58:51.943Z,8.00
2017-11-24T13:01:20.263Z,8.10
2017-11-24T13:03:47.813Z,8.10
2017-11-24T13:06:15.336Z,8.10
2017-11-24T13:08:42.893Z,8.00
2017-11-24T13:11:10.519Z,8.10
2017-11-24T13:13:38.067Z,8.10
2017-11-24T13:16:05.615Z,8.10
2017-11-24T13:18:33.172Z,8.10
2017-11-24T13:21:00.741Z,8.10
2017-11-24T13:23:28.309Z,8.00
2017-11-24T13:25:55.837Z,8.00
2017-11-24T13:28:24.120Z,8.00
2017-11-24T13:30:52.409Z,8.00
2017-11-24T13:33:19.919Z,7.90
2017-11-24T13:35:47.531Z,7.90
2017-11-24T13:38:15.045Z,7.90
2017-11-24T13:40:42.675Z,7.80
2017-11-24T13:43:10.199Z,7.80
2017-11-24T13:45:38.501Z,7.80
2017-11-24T13:48:06.756Z,7.80
2017-11-24T13:50:35.064Z,7.80
2017-11-24T13:53:02.588Z,7.80
2017-11-24T13:55:31.005Z,7.90
2017-11-24T13:57:58.517Z,7.80
2017-11-24T14:00:26.054Z,7.90
2017-11-24T14:02:53.672Z,7.80
2017-11-24T14:05:21.230Z,7.80
2017-11-24T14:07:48.803Z,7.80
2017-11-24T14:10:16.336Z,7.90
2017-11-24T14:12:44.615Z,7.80
2017-11-24T14:15:13.019Z,7.70
2017-11-24T14:17:40.543Z,7.70
2017-11-24T14:20:08.067Z,7.70
2017-11-24T14:22:35.572Z,7.70
2017-11-24T14:25:03.912Z,7.80
2017-11-24T14:27:31.420Z,7.80
2017-11-24T14:29:59.732Z,7.70
2017-11-24T14:32:27.264Z,7.70
2017-11-24T14:34:54.843Z,7.80
2017-11-24T14:37:22.368Z,7.70
2017-11-24T14:39:50.644Z,7.70
2017-11-24T14:42:18.940Z,7.60
2017-11-24T14:44:46.449Z,7.60
2017-11-24T14:47:13.970Z,7.60
2017-11-24T14:49:41.487Z,7.60
2017-11-24T14:52:09.095Z,7.50
2017-11-24T14:54:36.649Z,7.50
2017-11-24T14:57:04.184Z,7.40
2017-11-24T14:59:32.463Z,7.40
2017-11-24T15:02:00.766Z,7.30
2017-11-24T15:04:28.282Z,7.30
2017-11-24T15:06:55.828Z,7.40
2017-11-24T15:09:23.336Z,7.30
2017-11-24T15:11:51.627Z,7.40
2017-11-24T15:14:19.138Z,7.30
2017-11-24T15:16:46.763Z,7.30
2017-11-24T15:19:14.298Z,7.30
2017-11-24T15:21:41.881Z,7.30
2017-11-24T15:24:09.441Z,7.30
2017-11-24T15:26:36.972Z,7.30
2017-11-24T15:29:05.244Z,7.30
2017-11-24T15:31:33.548Z,7.30
2017-11-24T15:34:01.094Z,7.30
2017-11-24T15:36:28.611Z,7.30
2017-11-24T15:38:56.219Z,7.20
2017-11-24T15:41:23.736Z,7.20
2017-11-24T15:43:51.344Z,7.20
2017-11-24T15:46:18.871Z,7.20
2017-11-24T15:48:46.396Z,7.20
2017-11-24T15:51:13.926Z,7.20
2017-11-24T15:53:41.456Z,7.10
2017-11-24T15:56:09.054Z,7.20
2017-11-24T15:58:36.616Z,7.20
2017-11-24T16:01:04.169Z,7.10
2017-11-24T16:03:31.700Z,7.10
2017-11-24T16:06:00.001Z,7.20
2017-11-24T16:08:27.588Z,7.10
2017-11-24T16:10:55.155Z,7.20
2017-11-24T16:13:22.683Z,7.20
2017-11-24T16:15:50.236Z,7.10
2017-11-24T16:18:18.527Z,7.10
2017-11-24T16:20:46.067Z,7.10
2017-11-24T16:23:14.340Z,6.90
2017-11-24T16:25:42.644Z,6.80
2017-11-24T16:28:10.214Z,6.80
2017-11-24T16:30:37.747Z,6.70
2017-11-24T16:33:06.025Z,6.80
2017-11-24T16:35:34.452Z,6.90
2017-11-24T16:38:02.004Z,6.90
2017-11-24T16:40:29.568Z,6.90
2017-11-24T16:42:57.112Z,6.80
2017-11-24T16:45:24.637Z,6.70
2017-11-24T16:47:52.941Z,6.60
2017-11-24T16:50:20.468Z,6.60
2017-11-24T16:52:48.067Z,6.50
2017-11-24T16:55:15.592Z,6.60
2017-11-24T16:57:43.933Z,6.60
2017-11-24T17:00:11.476Z,6.50
2017-11-24T17:02:38.990Z,6.60
2017-11-24T17:05:06.524Z,6.60
2017-11-24T17:07:34.157Z,6.50
2017-11-24T17:10:01.685Z,6.50
2017-11-24T17:12:29.969Z,6.30
2017-11-24T17:14:58.413Z,6.40
2017-11-24T17:17:25.933Z,6.30
2017-11-24T17:19:53.455Z,6.30
2017-11-24T17:22:22.575Z,6.30
2017-11-24T17:24:50.153Z,6.20
2017-11-24T17:27:17.720Z,6.10
2017-11-24T17:29:45.264Z,6.10
2017-11-24T17:32:12.803Z,6.10
2017-11-24T17:34:41.105Z,6.10
2017-11-24T17:37:08.664Z,6.10
2017-11-24T17:39:36.175Z,6.10
2017-11-24T17:42:03.705Z,6.20
2017-11-24T17:44:31.226Z,6.20
2017-11-24T17:46:59.520Z,6.30
2017-11-24T17:49:27.109Z,6.30
2017-11-24T17:51:54.631Z,6.30
2017-11-24T17:54:22.913Z,6.20
2017-11-24T17:56:50.555Z,6.20
2017-11-24T17:59:18.859Z,6.10
2017-11-24T18:01:46.397Z,6.10
2017-11-24T18:04:13.916Z,6.00
2017-11-24T18:06:41.443Z,6.00
2017-11-24T18:09:08.959Z,5.90
2017-11-24T18:11:36.468Z,5.90
2017-11-24T18:14:04.012Z,5.90
2017-11-24T18:16:31.585Z,5.90
2017-11-24T18:18:59.140Z,5.80
2017-11-24T18:21:26.664Z,5.70
2017-11-24T18:23:54.197Z,5.60
2017-11-24T18:26:21.720Z,5.50
2017-11-24T18:28:49.249Z,5.50
2017-11-24T18:31:17.555Z,5.30
2017-11-24T18:33:45.132Z,5.30
2017-11-24T18:36:12.708Z,5.30
2017-11-24T18:38:40.246Z,5.20
2017-11-24T18:41:07.755Z,5.10
2017-11-24T18:43:35.284Z,5.20
2017-11-24T18:46:02.824Z,5.30
2017-11-24T18:48:30.357Z,5.20
2017-11-24T18:50:58.664Z,5.00
2017-11-24T18:53:26.240Z,5.00
2017-11-24T18:55:53.788Z,5.00
2017-11-24T18:58:21.314Z,5.10
2017-11-24T19:00:48.917Z,5.00
2017-11-24T19:03:16.463Z,4.90
2017-11-24T19:05:43.996Z,4.80
2017-11-24T19:08:12.307Z,4.80
2017-11-24T19:10:39.844Z,4.80
2017-11-24T19:13:08.132Z,4.90
2017-11-24T19:15:35.732Z,4.90
2017-11-24T19:18:03.286Z,4.80
2017-11-24T19:20:30.902Z,4.80
2017-11-24T19:22:58.509Z,4.90
2017-11-24T19:25:26.068Z,4.90
2017-11-24T19:27:53.611Z,5.00
2017-11-24T19:30:21.191Z,5.00
2017-11-24T19:32:48.743Z,4.90
2017-11-24T19:35:17.141Z,4.90
2017-11-24T19:37:44.669Z,4.90
2017-11-24T19:40:12.249Z,4.90
2017-11-24T19:42:39.805Z,4.80
2017-11-24T19:45:07.422Z,4.80
2017-11-24T19:47:35.736Z,4.60
2017-11-24T19:50:03.278Z,4.60
2017-11-24T19:52:31.567Z,4.50
2017-11-24T19:54:59.937Z,4.60
2017-11-24T19:57:28.371Z,4.50
2017-11-24T19:59:56.828Z,4.50
2017-11-24T20:02:24.464Z,4.40
2017-11-24T20:04:52.037Z,4.50
2017-11-24T20:07:19.727Z,4.50
2017-11-24T20:09:47.312Z,4.50
2017-11-24T20:12:14.858Z,4.40
2017-11-24T20:14:42.377Z,4.40
2017-11-24T20:17:10.780Z,4.50
2017-11-24T20:19:38.360Z,4.50
2017-11-24T20:22:06.015Z,4.40
2017-11-24T20:24:33.535Z,4.30
2017-11-24T20:27:01.074Z,4.20
2017-11-24T20:29:28.595Z,4.30
2017-11-24T20:31:56.137Z,4.30
2017-11-24T20:34:23.699Z,4.30
2017-11-24T20:36:54.627Z,4.30
2017-11-24T20:39:22.161Z,4.30
2017-11-24T20:41:50.562Z,4.30
2017-11-24T20:44:18.086Z,4.20
2017-11-24T20:46:45.703Z,4.20
2017-11-24T20:49:13.258Z,4.20
2017-11-24T20:51:40.822Z,4.10
2017-11-24T20:54:08.407Z,4.00
2017-11-24T20:56:35.932Z,4.10
2017-11-24T20:59:03.482Z,4.00
2017-11-24T21:01:31.109Z,4.00
2017-11-24T21:03:58.680Z,3.90
2017-11-24T21:06:26.989Z,4.00
2017-11-24T21:08:54.606Z,4.00
2017-11-24T21:11:22.233Z,3.90
2017-11-24T21:13:49.784Z,3.80
2017-11-24T21:16:19.463Z,3.80
2017-11-24T21:18:47.079Z,3.90
2017-11-24T21:21:14.699Z,3.90
2017-11-24T21:23:42.288Z,4.10
2017-11-24T21:26:09.830Z,4.10
2017-11-24T21:28:37.510Z,4.30
2017-11-24T21:31:05.088Z,4.30
2017-11-24T21:33:32.827Z,4.20
2017-11-24T21:36:00.360Z,4.10
2017-11-24T21:38:28.771Z,4.10
2017-11-24T21:40:56.325Z,4.00
2017-11-24T21:43:23.903Z,4.10
2017-11-24T21:45:53.080Z,4.10
2017-11-24T21:48:21.463Z,4.10
2017-11-24T21:50:49.837Z,4.20
2017-11-24T21:53:17.373Z,4.20
2017-11-24T21:55:45.704Z,4.20
2017-11-24T21:58:13.218Z,4.20
2017-11-24T22:00:41.522Z,4.20
2017-11-24T22:03:09.043Z,4.20
2017-11-24T22:05:36.576Z,4.20
2017-11-24T22:08:04.091Z,4.20
2017-11-24T22:10:32.413Z,4.20
2017-11-24T22:12:59.938Z,4.20
2017-11-24T22:15:27.527Z,4.20
2017-11-24T22:17:55.178Z,4.20
2017-11-24T22:20:22.711Z,4.20
2017-11-24T22:22:51.004Z,4.30
2017-11-24T22:25:18.551Z,4.30
2017-11-24T22:27:46.120Z,4.30
2017-11-24T22:30:13.678Z,4.30
2017-11-24T22:32:41.202Z,4.40
2017-11-24T22:35:09.508Z,4.40
2017-11-24T22:37:37.114Z,4.40
2017-11-24T22:40:04.635Z,4.30
2017-11-24T22:42:32.176Z,4.30
2017-11-24T22:44:59.688Z,4.30
2017-11-24T22:47:27.240Z,4.30
2017-11-24T22:49:54.753Z,4.40
2017-11-24T22:52:22.316Z,4.40
2017-11-24T22:54:50.589Z,4.30
2017-11-24T22:57:18.138Z,4.30
2017-11-24T22:59:45.662Z,4.40
2017-11-24T23:02:13.228Z,4.50
2017-11-24T23:04:40.747Z,4.50
2017-11-24T23:07:09.052Z,4.60
2017-11-24T23:09:36.567Z,4.60
2017-11-24T23:12:04.908Z,4.70
2017-11-24T23:14:32.429Z,4.70
2017-11-24T23:17:00.733Z,4.70
2017-11-24T23:19:28.244Z,4.80
2017-11-24T23:21:55.857Z,4.80
2017-11-24T23:24:23.420Z,4.80
2017-11-24T23:26:50.976Z,4.70
2017-11-24T23:29:18.501Z,4.70
2017-11-24T23:31:46.813Z,4.60
2017-11-24T23:34:14.360Z,4.60
2017-11-24T23:36:41.952Z,4.70
2017-11-24T23:39:09.594Z,4.70
2017-11-24T23:41:37.262Z,4.70
2017-11-24T23:44:04.829Z,4.70
2017-11-24T23:46:32.376Z,4.60
2017-11-24T23:48:59.938Z,4.60
2017-11-24T23:51:27.595Z,4.60
2017-11-24T23:53:55.143Z,4.60
2017-11-24T23:56:22.673Z,4.60
2017-11-24T23:58:50.207Z,4.70
